SWA4429 KLAX-KDEN
Flight info
| Callsign | SWA4429 |
|---|---|
| Flight time | N/A |
| Altitude | 37000 |
| Route | ORCKA5 LAS J146 DICEE BUMMP SSKII4 |
| Aircraft | B738/M-SDE2E3FGHIRWXY/LB1 |
Departure
| Time | 2026-05-06 03:23 |
|---|---|
| Airport | Los Angeles International Airport (KLAX) |
Arrival
| Time | N/A |
|---|---|
| Airport | Denver International Airport (KDEN) |
| Time | Latitude | Longitude | Altitude | Speed | Heading |
|---|---|---|---|---|---|
| 2026-05-06 02:44 | 33.94798 | -118.40126 | 121 ft | 0 kts | 187° |
| 2026-05-06 03:09 | 33.94799 | -118.40126 | 125 ft | 2 kts | 187° |
| 2026-05-06 03:09 | 33.94816 | -118.40121 | 122 ft | 4 kts | 199° |
| 2026-05-06 03:10 | 33.94838 | -118.40107 | 122 ft | 4 kts | 238° |
| 2026-05-06 03:10 | 33.94843 | -118.40093 | 123 ft | 1 kts | 263° |
| 2026-05-06 03:12 | 33.94840 | -118.40120 | 123 ft | 6 kts | 263° |
| 2026-05-06 03:13 | 33.94834 | -118.40181 | 125 ft | 9 kts | 263° |
| 2026-05-06 03:13 | 33.94821 | -118.40263 | 121 ft | 12 kts | 257° |
| 2026-05-06 03:13 | 33.94806 | -118.40373 | 125 ft | 13 kts | 263° |
| 2026-05-06 03:13 | 33.94795 | -118.40483 | 123 ft | 13 kts | 263° |
| 2026-05-06 03:14 | 33.94784 | -118.40589 | 123 ft | 13 kts | 262° |
| 2026-05-06 03:14 | 33.94772 | -118.40700 | 125 ft | 15 kts | 263° |
| 2026-05-06 03:14 | 33.94759 | -118.40829 | 129 ft | 16 kts | 263° |
| 2026-05-06 03:14 | 33.94746 | -118.40958 | 125 ft | 15 kts | 263° |
| 2026-05-06 03:15 | 33.94733 | -118.41088 | 121 ft | 16 kts | 263° |
| 2026-05-06 03:15 | 33.94706 | -118.41219 | 123 ft | 16 kts | 251° |
| 2026-05-06 03:15 | 33.94686 | -118.41346 | 129 ft | 14 kts | 253° |
| 2026-05-06 03:15 | 33.94602 | -118.41371 | 122 ft | 13 kts | 173° |
| 2026-05-06 03:16 | 33.94512 | -118.41358 | 120 ft | 14 kts | 173° |
| 2026-05-06 03:16 | 33.94411 | -118.41343 | 125 ft | 16 kts | 173° |
| 2026-05-06 03:16 | 33.94296 | -118.41326 | 125 ft | 18 kts | 173° |
| 2026-05-06 03:16 | 33.94169 | -118.41307 | 125 ft | 20 kts | 173° |
| 2026-05-06 03:17 | 33.94028 | -118.41286 | 124 ft | 22 kts | 173° |
| 2026-05-06 03:17 | 33.93877 | -118.41264 | 125 ft | 18 kts | 173° |
| 2026-05-06 03:17 | 33.93782 | -118.41246 | 121 ft | 10 kts | 156° |
| 2026-05-06 03:17 | 33.93759 | -118.41167 | 123 ft | 12 kts | 84° |
| 2026-05-06 03:18 | 33.93772 | -118.41045 | 125 ft | 17 kts | 83° |
| 2026-05-06 03:18 | 33.93789 | -118.40880 | 124 ft | 22 kts | 83° |
| 2026-05-06 03:18 | 33.93809 | -118.40679 | 125 ft | 26 kts | 84° |
| 2026-05-06 03:18 | 33.93831 | -118.40463 | 125 ft | 25 kts | 83° |
| 2026-05-06 03:19 | 33.93852 | -118.40259 | 125 ft | 24 kts | 83° |
| 2026-05-06 03:19 | 33.93871 | -118.40068 | 125 ft | 23 kts | 84° |
| 2026-05-06 03:19 | 33.93891 | -118.39882 | 125 ft | 22 kts | 83° |
| 2026-05-06 03:19 | 33.93909 | -118.39697 | 125 ft | 24 kts | 83° |
| 2026-05-06 03:20 | 33.93957 | -118.39234 | 121 ft | 28 kts | 83° |
| 2026-05-06 03:20 | 33.93980 | -118.39008 | 122 ft | 26 kts | 83° |
| 2026-05-06 03:20 | 33.94002 | -118.38797 | 125 ft | 25 kts | 83° |
| 2026-05-06 03:21 | 33.94022 | -118.38593 | 125 ft | 27 kts | 83° |
| 2026-05-06 03:21 | 33.94046 | -118.38363 | 123 ft | 27 kts | 83° |
| 2026-05-06 03:21 | 33.94068 | -118.38142 | 122 ft | 26 kts | 82° |
| 2026-05-06 03:21 | 33.94065 | -118.38009 | 130 ft | 13 kts | 132° |
| 2026-05-06 03:22 | 33.93993 | -118.38003 | 120 ft | 10 kts | 219° |
| 2026-05-06 03:22 | 33.93977 | -118.38104 | 125 ft | 27 kts | 262° |
| 2026-05-06 03:22 | 33.93924 | -118.38604 | 122 ft | 92 kts | 263° |
| 2026-05-06 03:22 | 33.93821 | -118.39604 | 122 ft | 146 kts | 263° |
| 2026-05-06 03:23 | 33.93684 | -118.40937 | 415 ft | 166 kts | 263° |
| 2026-05-06 03:23 | 33.93542 | -118.42357 | 998 ft | 174 kts | 263° |
| 2026-05-06 03:23 | 33.93401 | -118.43816 | 1666 ft | 176 kts | 263° |
| 2026-05-06 03:23 | 33.93268 | -118.45295 | 2308 ft | 182 kts | 264° |
| 2026-05-06 03:24 | 33.93127 | -118.46837 | 2943 ft | 186 kts | 264° |
| 2026-05-06 03:24 | 33.92993 | -118.48378 | 3726 ft | 182 kts | 264° |
| 2026-05-06 03:24 | 33.92769 | -118.49838 | 4526 ft | 177 kts | 255° |
| 2026-05-06 03:24 | 33.92331 | -118.51287 | 4889 ft | 197 kts | 243° |
| 2026-05-06 03:25 | 33.91640 | -118.52803 | 5085 ft | 216 kts | 242° |
| 2026-05-06 03:25 | 33.90882 | -118.54457 | 5266 ft | 235 kts | 243° |
| 2026-05-06 03:25 | 33.90118 | -118.56215 | 5627 ft | 244 kts | 244° |
| 2026-05-06 03:25 | 33.89369 | -118.58060 | 6216 ft | 245 kts | 246° |
| 2026-05-06 03:26 | 33.88652 | -118.59977 | 6598 ft | 262 kts | 248° |
| 2026-05-06 03:26 | 33.87927 | -118.62040 | 7130 ft | 271 kts | 246° |
| 2026-05-06 03:26 | 33.86809 | -118.63879 | 7779 ft | 278 kts | 220° |
| 2026-05-06 03:26 | 33.85081 | -118.64930 | 8452 ft | 284 kts | 194° |
| 2026-05-06 03:27 | 33.83112 | -118.65300 | 9128 ft | 289 kts | 188° |
| 2026-05-06 03:27 | 33.81090 | -118.65504 | 9768 ft | 294 kts | 179° |
| 2026-05-06 03:27 | 33.79123 | -118.64827 | 10327 ft | 303 kts | 148° |
| 2026-05-06 03:27 | 33.77602 | -118.62990 | 10483 ft | 323 kts | 118° |
| 2026-05-06 03:28 | 33.76975 | -118.60345 | 10656 ft | 340 kts | 90° |
| 2026-05-06 03:28 | 33.77470 | -118.57525 | 10891 ft | 353 kts | 62° |
| 2026-05-06 03:28 | 33.78905 | -118.55120 | 11445 ft | 357 kts | 50° |
| 2026-05-06 03:28 | 33.80481 | -118.52809 | 12112 ft | 358 kts | 43° |
| 2026-05-06 03:29 | 33.82552 | -118.51172 | 12776 ft | 358 kts | 25° |
| 2026-05-06 03:29 | 33.84777 | -118.49880 | 13437 ft | 361 kts | 27° |
| 2026-05-06 03:29 | 33.86982 | -118.48402 | 14068 ft | 365 kts | 30° |
| 2026-05-06 03:29 | 33.89163 | -118.46794 | 14702 ft | 369 kts | 31° |
| 2026-05-06 03:30 | 33.91329 | -118.45112 | 15346 ft | 372 kts | 35° |
| 2026-05-06 03:30 | 33.93312 | -118.43023 | 16008 ft | 376 kts | 46° |
| 2026-05-06 03:30 | 33.94949 | -118.40548 | 16653 ft | 380 kts | 54° |
| 2026-05-06 03:30 | 33.96419 | -118.37892 | 17235 ft | 383 kts | 55° |
| 2026-05-06 03:31 | 33.97895 | -118.35207 | 17833 ft | 386 kts | 55° |
| 2026-05-06 03:31 | 33.99401 | -118.32513 | 18415 ft | 389 kts | 54° |
| 2026-05-06 03:31 | 34.00913 | -118.29836 | 18943 ft | 392 kts | 54° |
| 2026-05-06 03:31 | 34.02452 | -118.27122 | 19548 ft | 392 kts | 54° |
| 2026-05-06 03:32 | 34.04001 | -118.24394 | 20166 ft | 393 kts | 54° |
| 2026-05-06 03:32 | 34.05566 | -118.21639 | 20642 ft | 397 kts | 55° |
| 2026-05-06 03:32 | 34.07130 | -118.18876 | 21129 ft | 400 kts | 55° |
| 2026-05-06 03:32 | 34.08700 | -118.16098 | 21667 ft | 402 kts | 55° |
| 2026-05-06 03:33 | 34.10259 | -118.13341 | 22147 ft | 404 kts | 55° |
| 2026-05-06 03:33 | 34.11849 | -118.10526 | 22628 ft | 407 kts | 55° |
| 2026-05-06 03:33 | 34.13447 | -118.07695 | 23098 ft | 409 kts | 55° |
| 2026-05-06 03:33 | 34.15050 | -118.04852 | 23554 ft | 411 kts | 55° |
| 2026-05-06 03:34 | 34.16661 | -118.01991 | 24004 ft | 413 kts | 55° |
| 2026-05-06 03:34 | 34.18279 | -117.99117 | 24442 ft | 415 kts | 56° |
| 2026-05-06 03:34 | 34.19905 | -117.96226 | 24835 ft | 417 kts | 55° |
| 2026-05-06 03:34 | 34.20986 | -117.94302 | 25113 ft | 418 kts | 55° |
| 2026-05-06 03:35 | 34.22626 | -117.91382 | 25497 ft | 420 kts | 55° |
| 2026-05-06 03:35 | 34.24272 | -117.88447 | 25864 ft | 423 kts | 55° |
| 2026-05-06 03:35 | 34.25927 | -117.85494 | 26250 ft | 424 kts | 55° |
| 2026-05-06 03:35 | 34.27589 | -117.82531 | 26604 ft | 426 kts | 55° |
| 2026-05-06 03:36 | 34.29253 | -117.79558 | 26920 ft | 428 kts | 55° |
| 2026-05-06 03:36 | 34.30924 | -117.76569 | 27229 ft | 431 kts | 55° |
| 2026-05-06 03:36 | 34.32605 | -117.73560 | 27567 ft | 432 kts | 55° |
| 2026-05-06 03:36 | 34.34290 | -117.70542 | 27914 ft | 434 kts | 55° |
| 2026-05-06 03:37 | 34.35994 | -117.67522 | 28210 ft | 435 kts | 54° |
| 2026-05-06 03:37 | 34.37752 | -117.64536 | 28532 ft | 436 kts | 53° |
| 2026-05-06 03:37 | 34.39523 | -117.61594 | 28832 ft | 438 kts | 53° |
| 2026-05-06 03:37 | 34.41327 | -117.58615 | 29128 ft | 439 kts | 53° |
| 2026-05-06 03:38 | 34.43130 | -117.55627 | 29454 ft | 440 kts | 53° |
| 2026-05-06 03:38 | 34.44953 | -117.52592 | 29786 ft | 440 kts | 53° |
| 2026-05-06 03:38 | 34.46746 | -117.49595 | 30211 ft | 437 kts | 53° |
| 2026-05-06 03:38 | 34.48522 | -117.46615 | 30616 ft | 436 kts | 53° |
| 2026-05-06 03:39 | 34.50276 | -117.43667 | 30894 ft | 437 kts | 53° |
| 2026-05-06 03:39 | 34.52059 | -117.40667 | 31084 ft | 440 kts | 53° |
| 2026-05-06 03:39 | 34.53847 | -117.37654 | 31401 ft | 440 kts | 53° |
| 2026-05-06 03:39 | 34.55631 | -117.34642 | 31702 ft | 440 kts | 53° |
| 2026-05-06 03:40 | 34.57416 | -117.31627 | 31951 ft | 440 kts | 53° |
| 2026-05-06 03:40 | 34.59203 | -117.28608 | 32227 ft | 441 kts | 53° |
| 2026-05-06 03:40 | 34.60991 | -117.25585 | 32457 ft | 442 kts | 53° |
| 2026-05-06 03:40 | 34.62783 | -117.22553 | 32720 ft | 442 kts | 53° |
| 2026-05-06 03:41 | 34.64573 | -117.19522 | 32989 ft | 442 kts | 53° |
| 2026-05-06 03:41 | 34.66361 | -117.16492 | 33223 ft | 442 kts | 53° |
| 2026-05-06 03:41 | 34.68155 | -117.13450 | 33462 ft | 442 kts | 53° |
| 2026-05-06 03:41 | 34.69951 | -117.10399 | 33684 ft | 444 kts | 53° |
| 2026-05-06 03:42 | 34.71746 | -117.07347 | 33919 ft | 444 kts | 53° |
| 2026-05-06 03:42 | 34.73543 | -117.04291 | 34167 ft | 444 kts | 53° |
| 2026-05-06 03:42 | 34.75340 | -117.01231 | 34382 ft | 444 kts | 53° |
| 2026-05-06 03:42 | 34.77138 | -116.98169 | 34566 ft | 446 kts | 53° |
| 2026-05-06 03:43 | 34.78942 | -116.95092 | 34747 ft | 447 kts | 53° |
| 2026-05-06 03:43 | 34.80748 | -116.92010 | 34921 ft | 448 kts | 53° |
| 2026-05-06 03:43 | 34.82561 | -116.88916 | 35116 ft | 449 kts | 53° |
| 2026-05-06 03:43 | 34.84372 | -116.85818 | 35341 ft | 449 kts | 53° |
| 2026-05-06 03:44 | 34.86180 | -116.82722 | 35552 ft | 449 kts | 53° |
| 2026-05-06 03:44 | 34.87995 | -116.79612 | 35664 ft | 452 kts | 53° |
| 2026-05-06 03:44 | 34.89818 | -116.76488 | 35825 ft | 453 kts | 53° |
| 2026-05-06 03:44 | 34.91643 | -116.73366 | 36028 ft | 452 kts | 53° |
| 2026-05-06 03:45 | 34.93620 | -116.70387 | 36177 ft | 453 kts | 47° |
| 2026-05-06 03:45 | 34.95751 | -116.67549 | 36326 ft | 454 kts | 46° |
| 2026-05-06 03:45 | 34.97924 | -116.64752 | 36500 ft | 454 kts | 45° |
| 2026-05-06 03:45 | 35.00106 | -116.61964 | 36669 ft | 455 kts | 45° |
| 2026-05-06 03:46 | 35.02287 | -116.59164 | 36809 ft | 456 kts | 46° |
| 2026-05-06 03:46 | 35.04462 | -116.56343 | 36948 ft | 457 kts | 46° |
| 2026-05-06 03:46 | 35.08805 | -116.50633 | 36942 ft | 458 kts | 46° |
| 2026-05-06 03:47 | 35.13062 | -116.44996 | 36929 ft | 451 kts | 46° |
| 2026-05-06 03:47 | 35.17294 | -116.39391 | 36932 ft | 446 kts | 46° |
| 2026-05-06 03:48 | 35.21480 | -116.33833 | 36921 ft | 442 kts | 46° |
| 2026-05-06 03:48 | 35.25627 | -116.28318 | 36942 ft | 439 kts | 47° |
| 2026-05-06 03:49 | 35.29752 | -116.22820 | 36935 ft | 438 kts | 46° |
| 2026-05-06 03:49 | 35.33872 | -116.17323 | 36937 ft | 438 kts | 47° |
| 2026-05-06 03:50 | 35.38002 | -116.11805 | 36934 ft | 439 kts | 47° |
| 2026-05-06 03:50 | 35.42133 | -116.06280 | 36914 ft | 439 kts | 47° |
| 2026-05-06 03:51 | 35.46250 | -116.00747 | 36928 ft | 439 kts | 47° |
| 2026-05-06 03:51 | 35.50359 | -115.95226 | 36910 ft | 438 kts | 47° |
| 2026-05-06 03:52 | 35.54473 | -115.89695 | 36913 ft | 440 kts | 47° |
| 2026-05-06 03:52 | 35.58600 | -115.84142 | 36906 ft | 440 kts | 47° |
| 2026-05-06 03:53 | 35.62715 | -115.78613 | 36923 ft | 439 kts | 47° |
| 2026-05-06 03:53 | 35.66765 | -115.73100 | 36911 ft | 437 kts | 48° |
| 2026-05-06 03:54 | 35.70806 | -115.67541 | 36904 ft | 434 kts | 47° |
| 2026-05-06 03:54 | 35.74823 | -115.62005 | 36910 ft | 433 kts | 48° |
| 2026-05-06 03:55 | 35.78830 | -115.56468 | 36913 ft | 434 kts | 48° |
| 2026-05-06 03:55 | 35.82832 | -115.50935 | 36928 ft | 432 kts | 48° |
| 2026-05-06 03:56 | 35.86836 | -115.45410 | 36932 ft | 432 kts | 48° |
| 2026-05-06 03:56 | 35.90841 | -115.39856 | 36920 ft | 433 kts | 48° |
| 2026-05-06 03:57 | 35.94828 | -115.34334 | 36927 ft | 435 kts | 48° |
| 2026-05-06 03:57 | 35.98863 | -115.28725 | 36921 ft | 438 kts | 48° |
| 2026-05-06 03:58 | 36.02931 | -115.23069 | 36921 ft | 441 kts | 48° |
| 2026-05-06 03:58 | 36.06905 | -115.17359 | 36889 ft | 434 kts | 54° |
| 2026-05-06 03:59 | 36.09705 | -115.10807 | 36890 ft | 433 kts | 68° |
| 2026-05-06 03:59 | 36.11782 | -115.03820 | 36886 ft | 433 kts | 69° |
| 2026-05-06 04:00 | 36.13872 | -114.96832 | 36869 ft | 434 kts | 68° |
| 2026-05-06 04:00 | 36.16006 | -114.89822 | 36864 ft | 437 kts | 68° |
| 2026-05-06 04:01 | 36.18152 | -114.82771 | 36857 ft | 439 kts | 68° |
| 2026-05-06 04:01 | 36.20322 | -114.75683 | 36862 ft | 441 kts | 68° |
| 2026-05-06 04:02 | 36.22515 | -114.68550 | 36861 ft | 444 kts | 68° |
| 2026-05-06 04:02 | 36.24714 | -114.61366 | 36872 ft | 448 kts | 68° |
| 2026-05-06 04:03 | 36.26908 | -114.54171 | 36899 ft | 451 kts | 69° |
| 2026-05-06 04:03 | 36.29129 | -114.46868 | 36918 ft | 455 kts | 69° |
| 2026-05-06 04:04 | 36.31369 | -114.39502 | 36915 ft | 458 kts | 69° |
| 2026-05-06 04:04 | 36.33615 | -114.32072 | 36911 ft | 461 kts | 69° |
| 2026-05-06 04:05 | 36.35861 | -114.24614 | 36922 ft | 462 kts | 69° |
| 2026-05-06 04:05 | 36.38113 | -114.17137 | 36913 ft | 462 kts | 69° |
| 2026-05-06 04:06 | 36.40357 | -114.09670 | 36909 ft | 460 kts | 69° |
| 2026-05-06 04:06 | 36.42591 | -114.02221 | 36918 ft | 460 kts | 69° |
| 2026-05-06 04:07 | 36.44799 | -113.94827 | 36906 ft | 459 kts | 69° |
| 2026-05-06 04:07 | 36.47016 | -113.87389 | 36913 ft | 458 kts | 69° |
| 2026-05-06 04:08 | 36.49220 | -113.79972 | 36912 ft | 457 kts | 69° |
| 2026-05-06 04:08 | 36.51417 | -113.72557 | 36921 ft | 457 kts | 69° |
| 2026-05-06 04:09 | 36.53609 | -113.65139 | 36936 ft | 457 kts | 69° |
| 2026-05-06 04:09 | 36.55782 | -113.57758 | 36937 ft | 457 kts | 69° |
| 2026-05-06 04:10 | 36.57965 | -113.50338 | 36933 ft | 457 kts | 69° |
| 2026-05-06 04:10 | 36.60144 | -113.42909 | 36945 ft | 456 kts | 69° |
| 2026-05-06 04:11 | 36.62313 | -113.35486 | 36959 ft | 457 kts | 69° |
| 2026-05-06 04:11 | 36.64474 | -113.28047 | 36971 ft | 457 kts | 70° |
| 2026-05-06 04:12 | 36.66632 | -113.20579 | 36969 ft | 459 kts | 70° |
| 2026-05-06 04:12 | 36.68788 | -113.13078 | 36980 ft | 460 kts | 70° |
| 2026-05-06 04:13 | 36.70944 | -113.05566 | 36984 ft | 461 kts | 70° |
| 2026-05-06 04:13 | 36.73101 | -112.98026 | 36995 ft | 463 kts | 70° |
| 2026-05-06 04:14 | 36.75265 | -112.90461 | 37005 ft | 464 kts | 70° |
| 2026-05-06 04:14 | 36.77431 | -112.82871 | 37012 ft | 465 kts | 70° |
| 2026-05-06 04:15 | 36.79573 | -112.75313 | 37009 ft | 466 kts | 70° |
| 2026-05-06 04:15 | 36.81731 | -112.67678 | 37025 ft | 467 kts | 70° |
| 2026-05-06 04:16 | 36.83894 | -112.60022 | 37017 ft | 468 kts | 70° |
| 2026-05-06 04:16 | 36.86058 | -112.52354 | 37019 ft | 468 kts | 70° |
| 2026-05-06 04:17 | 36.88211 | -112.44673 | 37010 ft | 469 kts | 70° |
| 2026-05-06 04:17 | 36.90374 | -112.36984 | 37024 ft | 469 kts | 70° |
| 2026-05-06 04:18 | 36.92531 | -112.29299 | 37031 ft | 468 kts | 70° |
| 2026-05-06 04:18 | 36.94683 | -112.21611 | 37017 ft | 469 kts | 71° |
| 2026-05-06 04:19 | 36.96831 | -112.13906 | 36994 ft | 469 kts | 71° |
| 2026-05-06 04:19 | 36.98978 | -112.06195 | 36964 ft | 469 kts | 70° |
| 2026-05-06 04:20 | 37.01117 | -111.98496 | 36943 ft | 468 kts | 71° |
| 2026-05-06 04:20 | 37.03249 | -111.90797 | 36937 ft | 467 kts | 71° |
| 2026-05-06 04:21 | 37.05368 | -111.83106 | 36934 ft | 468 kts | 71° |
| 2026-05-06 04:21 | 37.07494 | -111.75385 | 36927 ft | 469 kts | 71° |
| 2026-05-06 04:22 | 37.09599 | -111.67701 | 36910 ft | 469 kts | 71° |
| 2026-05-06 04:23 | 37.12776 | -111.56088 | 36905 ft | 470 kts | 71° |
| 2026-05-06 04:23 | 37.14891 | -111.48323 | 36901 ft | 472 kts | 71° |
| 2026-05-06 04:24 | 37.17005 | -111.40518 | 36906 ft | 474 kts | 71° |
| 2026-05-06 04:24 | 37.19126 | -111.32688 | 36898 ft | 475 kts | 71° |
| 2026-05-06 04:25 | 37.20886 | -111.26170 | 36899 ft | 475 kts | 71° |
| 2026-05-06 04:25 | 37.23297 | -111.18466 | 36889 ft | 475 kts | 64° |
| 2026-05-06 04:26 | 37.26278 | -111.11081 | 36887 ft | 474 kts | 62° |
| 2026-05-06 04:26 | 37.29333 | -111.03659 | 36881 ft | 476 kts | 63° |
| 2026-05-06 04:27 | 37.32299 | -110.96293 | 36874 ft | 476 kts | 63° |
| 2026-05-06 04:27 | 37.35259 | -110.88828 | 36870 ft | 477 kts | 63° |
| 2026-05-06 04:28 | 37.38211 | -110.81350 | 36860 ft | 478 kts | 63° |
| 2026-05-06 04:28 | 37.41164 | -110.73864 | 36852 ft | 478 kts | 64° |
| 2026-05-06 04:29 | 37.44108 | -110.66376 | 36846 ft | 477 kts | 64° |
| 2026-05-06 04:29 | 37.47038 | -110.58896 | 36843 ft | 476 kts | 64° |
| 2026-05-06 04:30 | 37.49965 | -110.51428 | 36844 ft | 475 kts | 63° |
| 2026-05-06 04:30 | 37.52885 | -110.43961 | 36843 ft | 475 kts | 64° |
| 2026-05-06 04:31 | 37.55784 | -110.36511 | 36851 ft | 473 kts | 64° |
| 2026-05-06 04:31 | 37.58677 | -110.29059 | 36858 ft | 472 kts | 64° |
| 2026-05-06 04:32 | 37.61560 | -110.21623 | 36867 ft | 472 kts | 64° |
| 2026-05-06 04:32 | 37.64432 | -110.14204 | 36880 ft | 470 kts | 64° |
| 2026-05-06 04:33 | 37.67288 | -110.06797 | 36906 ft | 468 kts | 64° |
| 2026-05-06 04:33 | 37.70129 | -109.99405 | 36914 ft | 467 kts | 64° |
| 2026-05-06 04:34 | 37.72969 | -109.92017 | 36930 ft | 467 kts | 64° |
| 2026-05-06 04:34 | 37.75783 | -109.84671 | 36935 ft | 467 kts | 64° |
| 2026-05-06 04:35 | 37.78634 | -109.77212 | 36951 ft | 469 kts | 64° |
| 2026-05-06 04:35 | 37.81457 | -109.69818 | 36957 ft | 471 kts | 64° |
| 2026-05-06 04:36 | 37.84302 | -109.62329 | 36961 ft | 474 kts | 64° |
| 2026-05-06 04:36 | 37.87165 | -109.54783 | 36976 ft | 475 kts | 64° |
| 2026-05-06 04:37 | 37.90029 | -109.47215 | 36977 ft | 478 kts | 64° |
| 2026-05-06 04:37 | 37.92901 | -109.39607 | 36989 ft | 480 kts | 64° |
| 2026-05-06 04:38 | 37.95778 | -109.31961 | 37001 ft | 482 kts | 65° |
| 2026-05-06 04:38 | 37.98669 | -109.24259 | 37008 ft | 485 kts | 64° |
| 2026-05-06 04:39 | 38.01575 | -109.16500 | 37009 ft | 488 kts | 64° |
| 2026-05-06 04:39 | 38.04471 | -109.08751 | 36980 ft | 483 kts | 64° |
| 2026-05-06 04:40 | 38.07324 | -109.01103 | 36975 ft | 479 kts | 64° |
| 2026-05-06 04:40 | 38.10168 | -108.93452 | 36974 ft | 480 kts | 64° |
| 2026-05-06 04:41 | 38.13110 | -108.85877 | 36972 ft | 482 kts | 63° |